createdAt,value
2023-04-18T00:00:43.184Z,100.00
2023-04-18T00:03:46.008Z,100.00
2023-04-18T00:06:49.927Z,100.00
2023-04-18T00:09:51.596Z,100.00
2023-04-18T00:12:53.213Z,100.00
2023-04-18T00:15:55.199Z,100.00
2023-04-18T00:18:57.485Z,100.00
2023-04-18T00:21:59.940Z,100.00
2023-04-18T00:25:01.560Z,100.00
2023-04-18T00:28:03.171Z,100.00
2023-04-18T00:31:05.160Z,100.00
2023-04-18T00:34:06.885Z,100.00
2023-04-18T00:37:08.727Z,100.00
2023-04-18T00:40:10.898Z,100.00
2023-04-18T00:43:16.996Z,100.00
2023-04-18T00:46:18.711Z,100.00
2023-04-18T00:49:21.670Z,100.00
2023-04-18T00:52:27.103Z,100.00
2023-04-18T00:55:29.661Z,100.00
2023-04-18T00:58:32.192Z,100.00
2023-04-18T01:01:33.971Z,100.00
2023-04-18T01:04:35.795Z,100.00
2023-04-18T01:07:41.756Z,100.00
2023-04-18T01:10:43.508Z,100.00
2023-04-18T01:14:02.185Z,100.00
2023-04-18T01:17:03.884Z,100.00
2023-04-18T01:20:06.507Z,100.00
2023-04-18T01:23:10.536Z,100.00
2023-04-18T01:26:12.363Z,100.00
2023-04-18T01:29:13.983Z,100.00
2023-04-18T01:32:17.727Z,100.00
2023-04-18T01:35:19.576Z,100.00
2023-04-18T01:38:21.207Z,100.00
2023-04-18T01:41:23.251Z,100.00
2023-04-18T01:44:24.887Z,100.00
2023-04-18T01:47:26.612Z,100.00
2023-04-18T01:50:28.278Z,100.00
2023-04-18T01:53:30.871Z,100.00
2023-04-18T01:56:32.552Z,100.00
2023-04-18T01:59:34.205Z,100.00
2023-04-18T02:02:35.987Z,100.00
2023-04-18T02:05:37.716Z,100.00
2023-04-18T02:08:39.329Z,100.00
2023-04-18T02:11:40.996Z,100.00
2023-04-18T02:14:42.716Z,100.00
2023-04-18T02:17:44.452Z,100.00
2023-04-18T02:20:46.074Z,100.00
2023-04-18T02:23:47.667Z,100.00
2023-04-18T02:26:49.764Z,100.00
2023-04-18T02:29:51.360Z,100.00
2023-04-18T02:32:54.303Z,100.00
2023-04-18T02:35:56.160Z,100.00
2023-04-18T02:38:57.816Z,100.00
2023-04-18T02:41:59.485Z,100.00
2023-04-18T02:45:01.156Z,100.00
2023-04-18T02:48:02.917Z,100.00
2023-04-18T02:51:06.111Z,100.00
2023-04-18T02:54:07.894Z,100.00
2023-04-18T02:57:09.521Z,100.00
2023-04-18T03:00:11.950Z,100.00
2023-04-18T03:03:13.671Z,100.00
2023-04-18T03:06:15.317Z,100.00
2023-04-18T03:09:17.128Z,100.00
2023-04-18T03:12:18.776Z,100.00
2023-04-18T03:15:20.656Z,100.00
2023-04-18T03:18:22.325Z,100.00
2023-04-18T03:21:23.991Z,100.00
2023-04-18T03:24:25.610Z,100.00
2023-04-18T03:27:27.222Z,100.00
2023-04-18T03:30:28.859Z,100.00
2023-04-18T03:33:30.566Z,100.00
2023-04-18T03:36:32.230Z,100.00
2023-04-18T03:39:33.882Z,100.00
2023-04-18T03:42:35.530Z,100.00
2023-04-18T03:45:37.376Z,100.00
2023-04-18T03:48:39.017Z,100.00
2023-04-18T03:51:47.772Z,100.00
2023-04-18T03:54:49.612Z,100.00
2023-04-18T03:57:51.573Z,100.00
2023-04-18T04:00:53.304Z,100.00
2023-04-18T04:03:55.059Z,100.00
2023-04-18T04:06:56.984Z,100.00
2023-04-18T04:09:58.854Z,100.00
2023-04-18T04:13:00.597Z,100.00
2023-04-18T04:16:02.584Z,100.00
2023-04-18T04:19:04.712Z,100.00
2023-04-18T04:22:06.403Z,100.00
2023-04-18T04:25:08.629Z,100.00
2023-04-18T04:28:11.019Z,100.00
2023-04-18T04:31:12.630Z,100.00
2023-04-18T04:34:14.630Z,100.00
2023-04-18T04:37:18.825Z,100.00
2023-04-18T04:40:20.550Z,100.00
2023-04-18T04:43:22.179Z,100.00
2023-04-18T04:46:23.976Z,100.00
2023-04-18T04:49:25.950Z,100.00
2023-04-18T04:52:27.583Z,100.00
2023-04-18T04:55:29.256Z,100.00
2023-04-18T04:58:31.157Z,100.00
2023-04-18T05:01:34.807Z,100.00
2023-04-18T05:04:36.992Z,100.00
2023-04-18T05:07:38.733Z,100.00
2023-04-18T05:10:41.044Z,100.00
2023-04-18T05:13:42.772Z,100.00
2023-04-18T05:16:44.535Z,100.00
2023-04-18T05:19:46.452Z,100.00
2023-04-18T05:22:48.107Z,100.00
2023-04-18T05:25:49.894Z,100.00
2023-04-18T05:28:51.697Z,100.00
2023-04-18T05:31:54.035Z,100.00
2023-04-18T05:34:56.075Z,100.00
2023-04-18T05:37:58.728Z,100.00
2023-04-18T05:41:00.488Z,100.00
2023-04-18T05:44:05.588Z,100.00
2023-04-18T05:47:07.649Z,100.00
2023-04-18T05:50:09.637Z,100.00
2023-04-18T05:53:11.307Z,100.00
2023-04-18T05:56:12.898Z,100.00
2023-04-18T05:59:14.576Z,100.00
2023-04-18T06:02:16.368Z,100.00
2023-04-18T06:05:18.240Z,100.00
2023-04-18T06:08:20.244Z,100.00
2023-04-18T06:11:22.732Z,100.00
2023-04-18T06:14:24.437Z,100.00
2023-04-18T06:17:26.126Z,100.00
2023-04-18T06:20:27.836Z,100.00
2023-04-18T06:23:29.469Z,100.00
2023-04-18T06:26:32.085Z,100.00
2023-04-18T06:29:35.527Z,100.00
2023-04-18T06:32:37.834Z,100.00
2023-04-18T06:35:39.731Z,100.00
2023-04-18T06:38:41.358Z,100.00
2023-04-18T06:41:42.980Z,100.00
2023-04-18T06:44:44.720Z,100.00
2023-04-18T06:47:47.840Z,98.14
2023-04-18T06:50:49.507Z,94.81
2023-04-18T06:53:53.031Z,93.96
2023-04-18T06:56:54.759Z,92.51
2023-04-18T06:59:56.380Z,92.02
2023-04-18T07:02:58.164Z,89.54
2023-04-18T07:06:00.038Z,87.24
2023-04-18T07:09:01.889Z,88.39
2023-04-18T07:12:03.596Z,85.59
2023-04-18T07:15:05.795Z,85.08
2023-04-18T07:18:07.477Z,83.21
2023-04-18T07:21:09.268Z,79.69
2023-04-18T07:24:12.226Z,77.90
2023-04-18T07:27:14.889Z,74.17
2023-04-18T07:30:16.549Z,70.16
2023-04-18T07:33:18.192Z,62.18
2023-04-18T07:36:20.134Z,56.92
2023-04-18T07:39:21.776Z,52.94
2023-04-18T07:42:23.403Z,48.61
2023-04-18T07:45:25.096Z,48.04
2023-04-18T07:48:26.958Z,47.34
2023-04-18T07:51:31.842Z,43.96
2023-04-18T07:54:33.609Z,40.79
2023-04-18T07:57:35.279Z,37.05
2023-04-18T08:00:39.208Z,36.27
2023-04-18T08:03:41.875Z,37.82
2023-04-18T08:06:43.642Z,33.92
2023-04-18T08:09:45.958Z,32.22
2023-04-18T08:12:47.593Z,32.37
2023-04-18T08:15:49.276Z,32.57
2023-04-18T08:18:50.970Z,33.11
2023-04-18T08:21:52.612Z,37.34
2023-04-18T08:25:04.497Z,37.06
2023-04-18T08:28:07.343Z,38.24
2023-04-18T08:31:12.912Z,40.81
2023-04-18T08:34:14.568Z,45.21
2023-04-18T08:37:16.298Z,44.29
2023-04-18T08:40:18.672Z,42.90
2023-04-18T08:43:20.407Z,37.86
2023-04-18T08:46:22.866Z,39.27
2023-04-18T08:49:25.021Z,41.89
2023-04-18T08:52:30.713Z,37.33
2023-04-18T08:55:33.732Z,34.29
2023-04-18T08:58:35.378Z,32.77
2023-04-18T09:01:49.236Z,28.17
2023-04-18T09:04:53.799Z,27.10
2023-04-18T09:07:56.740Z,27.16
2023-04-18T09:11:26.230Z,30.20
2023-04-18T09:14:27.915Z,27.65
2023-04-18T09:17:45.551Z,25.01
2023-04-18T09:20:48.936Z,24.74
2023-04-18T09:23:50.611Z,28.00
2023-04-18T09:26:59.907Z,25.72
2023-04-18T09:30:01.604Z,24.23
2023-04-18T09:33:05.453Z,25.92
2023-04-18T09:36:21.621Z,26.90
2023-04-18T09:39:29.497Z,29.50
2023-04-18T09:42:36.255Z,30.78
2023-04-18T09:45:38.332Z,36.66
2023-04-18T09:48:40.901Z,32.13
2023-04-18T09:51:44.705Z,35.48
2023-04-18T09:54:48.673Z,37.60
2023-04-18T09:57:53.035Z,39.90
2023-04-18T10:00:55.665Z,39.99
2023-04-18T10:03:57.829Z,39.57
2023-04-18T10:07:00.812Z,41.87
2023-04-18T10:10:02.526Z,43.22
2023-04-18T10:13:06.642Z,43.59
2023-04-18T10:16:08.511Z,43.89
2023-04-18T10:19:20.664Z,42.74
2023-04-18T10:22:27.828Z,42.38
2023-04-18T10:25:38.513Z,42.07
2023-04-18T10:28:49.078Z,40.45
2023-04-18T10:31:50.774Z,39.42
2023-04-18T10:34:56.211Z,39.05
2023-04-18T10:37:59.678Z,36.98
2023-04-18T10:41:18.558Z,38.39
2023-04-18T10:44:22.930Z,36.99
2023-04-18T10:47:25.157Z,39.31
2023-04-18T10:50:26.865Z,39.67
2023-04-18T10:53:28.504Z,37.97
2023-04-18T10:56:30.337Z,38.90
2023-04-18T10:59:33.798Z,39.77
2023-04-18T11:02:36.191Z,37.51
2023-04-18T11:05:38.018Z,38.18
2023-04-18T11:08:40.703Z,38.74
2023-04-18T11:11:44.108Z,39.47
2023-04-18T11:14:54.308Z,37.20
2023-04-18T11:18:00.023Z,37.71
2023-04-18T11:21:03.831Z,39.13
2023-04-18T11:24:05.689Z,38.98
2023-04-18T11:27:12.006Z,37.43
2023-04-18T11:30:14.811Z,39.05
2023-04-18T11:33:16.830Z,37.53
2023-04-18T11:36:18.650Z,37.41
2023-04-18T11:39:20.584Z,37.05
2023-04-18T11:42:28.035Z,37.14
2023-04-18T11:45:29.766Z,38.05
2023-04-18T11:48:41.702Z,36.05
2023-04-18T11:51:44.801Z,35.47
2023-04-18T11:54:46.600Z,36.29
2023-04-18T11:57:59.293Z,37.54
2023-04-18T12:01:25.210Z,37.76
2023-04-18T12:04:27.033Z,36.42
2023-04-18T12:07:38.073Z,37.10
2023-04-18T12:10:46.705Z,38.63
2023-04-18T12:13:48.337Z,35.87
2023-04-18T12:16:50.819Z,35.82
2023-04-18T12:19:53.927Z,34.11
2023-04-18T12:22:55.747Z,35.59
2023-04-18T12:26:05.736Z,37.21
2023-04-18T12:29:07.418Z,35.28
2023-04-18T12:32:09.127Z,33.75
2023-04-18T12:35:10.792Z,35.09
2023-04-18T12:38:12.516Z,36.43
2023-04-18T12:41:14.142Z,37.94
2023-04-18T12:44:16.012Z,36.57
2023-04-18T12:47:17.785Z,37.29
2023-04-18T12:50:25.063Z,36.68
2023-04-18T12:53:26.879Z,37.10
2023-04-18T12:56:28.593Z,35.43
2023-04-18T12:59:30.779Z,34.95
2023-04-18T13:02:34.466Z,34.55
2023-04-18T13:05:36.368Z,34.44
2023-04-18T13:08:38.655Z,35.26
2023-04-18T13:11:40.306Z,35.59
2023-04-18T13:14:42.696Z,35.34
2023-04-18T13:17:44.837Z,35.68
2023-04-18T13:20:46.820Z,35.59
2023-04-18T13:23:48.521Z,36.33
2023-04-18T13:26:50.250Z,37.60
2023-04-18T13:29:52.131Z,40.64
2023-04-18T13:32:55.006Z,40.69
2023-04-18T13:35:56.704Z,40.61
2023-04-18T13:38:58.381Z,41.72
2023-04-18T13:42:00.081Z,40.37
2023-04-18T13:45:01.821Z,39.68
2023-04-18T13:48:03.669Z,38.89
2023-04-18T13:51:05.781Z,36.34
2023-04-18T13:54:07.692Z,36.28
2023-04-18T13:57:11.743Z,35.31
2023-04-18T14:00:14.419Z,36.76
2023-04-18T14:03:16.378Z,37.65
2023-04-18T14:06:18.126Z,38.53
2023-04-18T14:09:19.858Z,39.43
2023-04-18T14:12:21.824Z,40.05
2023-04-18T14:15:23.712Z,37.83
2023-04-18T14:18:25.504Z,39.52
2023-04-18T14:21:27.820Z,39.76
2023-04-18T14:24:29.427Z,40.05
2023-04-18T14:27:31.100Z,38.89
2023-04-18T14:30:32.940Z,39.78
2023-04-18T14:33:34.896Z,40.16
2023-04-18T14:36:36.915Z,40.92
2023-04-18T14:39:38.614Z,40.06
2023-04-18T14:42:40.310Z,41.15
2023-04-18T14:45:41.981Z,40.47
2023-04-18T14:48:49.599Z,41.83
2023-04-18T14:51:51.439Z,40.26
2023-04-18T14:54:53.113Z,39.27
2023-04-18T14:57:54.865Z,38.17
2023-04-18T15:00:56.492Z,38.13
2023-04-18T15:03:58.343Z,37.48
2023-04-18T15:07:00.182Z,37.47
2023-04-18T15:10:02.154Z,36.91
2023-04-18T15:13:04.461Z,38.83
2023-04-18T15:16:06.721Z,38.85
2023-04-18T15:19:08.442Z,39.40
2023-04-18T15:22:10.830Z,40.54
2023-04-18T15:25:16.358Z,40.20
2023-04-18T15:28:18.725Z,41.42
2023-04-18T15:31:21.800Z,41.58
2023-04-18T15:34:23.812Z,40.84
2023-04-18T15:37:26.372Z,41.46
2023-04-18T15:40:28.064Z,42.20
2023-04-18T15:43:29.672Z,41.99
2023-04-18T15:46:31.405Z,41.30
2023-04-18T15:49:33.210Z,40.48
2023-04-18T15:52:34.890Z,39.56
2023-04-18T15:55:36.556Z,40.23
2023-04-18T15:58:38.183Z,41.28
2023-04-18T16:01:39.899Z,40.69
2023-04-18T16:04:41.573Z,41.21
2023-04-18T16:07:43.518Z,40.75
2023-04-18T16:10:45.407Z,41.75
2023-04-18T16:13:47.180Z,41.06
2023-04-18T16:16:48.874Z,41.98
2023-04-18T16:19:50.595Z,42.47
2023-04-18T16:22:52.244Z,44.14
2023-04-18T16:25:55.281Z,45.04
2023-04-18T16:28:57.136Z,44.66
2023-04-18T16:31:58.949Z,44.58
2023-04-18T16:35:00.626Z,45.10
2023-04-18T16:38:02.377Z,45.61
2023-04-18T16:41:04.282Z,44.78
2023-04-18T16:44:05.969Z,44.01
2023-04-18T16:47:08.432Z,44.79
2023-04-18T16:50:10.386Z,44.58
2023-04-18T16:53:12.255Z,44.08
2023-04-18T16:56:14.197Z,45.39
2023-04-18T16:59:15.908Z,44.29
2023-04-18T17:02:17.721Z,45.17
2023-04-18T17:05:19.917Z,44.35
2023-04-18T17:08:21.659Z,44.58
2023-04-18T17:11:23.413Z,45.74
2023-04-18T17:14:25.049Z,47.01
2023-04-18T17:17:27.046Z,46.19
2023-04-18T17:20:28.796Z,46.85
2023-04-18T17:23:32.645Z,46.77
2023-04-18T17:26:35.777Z,46.72
2023-04-18T17:29:38.116Z,47.87
2023-04-18T17:32:45.705Z,47.40
2023-04-18T17:35:48.452Z,45.77
2023-04-18T17:38:51.368Z,46.55
2023-04-18T17:41:53.842Z,46.68
2023-04-18T17:44:56.357Z,46.71
2023-04-18T17:47:59.777Z,47.49
2023-04-18T17:51:03.175Z,52.56
2023-04-18T17:54:05.940Z,52.84
2023-04-18T17:57:09.357Z,49.76
2023-04-18T18:00:13.906Z,49.84
2023-04-18T18:03:17.759Z,50.14
2023-04-18T18:06:20.082Z,50.58
2023-04-18T18:09:22.080Z,50.30
2023-04-18T18:12:24.866Z,48.89
2023-04-18T18:15:28.557Z,49.97
2023-04-18T18:18:31.808Z,48.32
2023-04-18T18:21:33.987Z,48.25
2023-04-18T18:24:36.231Z,47.33
2023-04-18T18:27:38.651Z,47.04
2023-04-18T18:30:40.924Z,46.44
2023-04-18T18:33:43.268Z,46.99
2023-04-18T18:36:45.539Z,47.24
2023-04-18T18:39:48.755Z,47.63
2023-04-18T18:42:52.006Z,47.51
2023-04-18T18:45:54.596Z,48.37
2023-04-18T18:48:57.127Z,47.93
2023-04-18T18:51:59.395Z,48.38
2023-04-18T18:55:02.092Z,48.63
2023-04-18T18:58:04.270Z,49.16
2023-04-18T19:01:06.864Z,49.16
2023-04-18T19:04:10.226Z,49.33
2023-04-18T19:07:12.933Z,48.55
2023-04-18T19:10:16.742Z,48.53
2023-04-18T19:13:23.344Z,48.06
2023-04-18T19:16:25.923Z,48.17
2023-04-18T19:19:28.966Z,48.33
2023-04-18T19:22:32.175Z,48.24
2023-04-18T19:25:36.326Z,47.36
2023-04-18T19:28:41.716Z,47.81
2023-04-18T19:31:45.036Z,47.40
2023-04-18T19:34:49.068Z,46.95
2023-04-18T19:37:51.790Z,46.42
2023-04-18T19:40:55.473Z,46.87
2023-04-18T19:43:57.848Z,46.35
2023-04-18T19:47:00.547Z,46.91
2023-04-18T19:50:03.879Z,47.49
2023-04-18T19:53:13.931Z,47.04
2023-04-18T19:56:16.221Z,46.93
2023-04-18T19:59:18.598Z,47.05
2023-04-18T20:02:22.854Z,46.13
2023-04-18T20:05:25.229Z,46.58
2023-04-18T20:08:27.574Z,47.18
2023-04-18T20:11:29.694Z,47.20
2023-04-18T20:14:33.091Z,47.26
2023-04-18T20:17:38.682Z,46.82
2023-04-18T20:20:41.724Z,47.16
2023-04-18T20:23:45.039Z,47.25
2023-04-18T20:26:47.799Z,47.13
2023-04-18T20:29:49.853Z,48.26
2023-04-18T20:32:52.190Z,47.15
2023-04-18T20:35:55.261Z,46.63
2023-04-18T20:38:57.508Z,46.25
2023-04-18T20:42:01.625Z,46.78
2023-04-18T20:45:04.430Z,47.02
2023-04-18T20:48:06.551Z,46.25
2023-04-18T20:51:08.232Z,47.26
2023-04-18T20:54:10.045Z,47.75
2023-04-18T20:57:14.789Z,47.04
2023-04-18T21:00:17.007Z,47.23
2023-04-18T21:03:18.872Z,46.05
2023-04-18T21:06:22.216Z,47.01
2023-04-18T21:09:23.929Z,46.44
2023-04-18T21:12:25.631Z,46.10
2023-04-18T21:15:27.245Z,46.39
2023-04-18T21:18:29.456Z,46.21
2023-04-18T21:21:31.666Z,45.97
2023-04-18T21:24:33.781Z,46.09
2023-04-18T21:27:35.500Z,46.28
2023-04-18T21:30:37.230Z,46.51
2023-04-18T21:33:38.869Z,47.05
2023-04-18T21:36:40.872Z,47.67
2023-04-18T21:39:42.652Z,47.08
2023-04-18T21:42:44.622Z,47.26
2023-04-18T21:45:46.510Z,47.43
2023-04-18T21:48:48.744Z,47.77
2023-04-18T21:51:50.544Z,48.06
2023-04-18T21:54:52.325Z,48.16
2023-04-18T21:57:54.371Z,48.68
2023-04-18T22:00:56.660Z,49.02
2023-04-18T22:03:58.466Z,49.92
2023-04-18T22:07:00.630Z,50.16
2023-04-18T22:10:02.295Z,50.41
2023-04-18T22:13:04.845Z,50.72
2023-04-18T22:16:08.342Z,50.73
2023-04-18T22:19:10.927Z,50.97
2023-04-18T22:22:12.521Z,51.07
2023-04-18T22:25:14.262Z,51.36
2023-04-18T22:28:16.079Z,51.40
2023-04-18T22:31:17.782Z,51.80
2023-04-18T22:34:19.433Z,52.21
2023-04-18T22:37:21.090Z,52.10
2023-04-18T22:40:22.788Z,52.87
2023-04-18T22:43:24.977Z,53.33
2023-04-18T22:46:27.419Z,53.79
2023-04-18T22:49:30.106Z,54.45
2023-04-18T22:52:31.764Z,54.29
2023-04-18T22:55:33.459Z,54.69
2023-04-18T22:58:35.132Z,55.13
2023-04-18T23:01:36.802Z,55.14
2023-04-18T23:04:40.112Z,55.22
2023-04-18T23:07:42.016Z,55.56
2023-04-18T23:10:43.753Z,55.90
2023-04-18T23:13:45.405Z,55.73
2023-04-18T23:16:47.015Z,56.44
2023-04-18T23:19:48.739Z,56.60
2023-04-18T23:22:51.820Z,56.96
2023-04-18T23:25:53.671Z,57.15
2023-04-18T23:28:55.331Z,56.70
2023-04-18T23:31:56.973Z,56.35
2023-04-18T23:34:58.653Z,56.46
2023-04-18T23:38:00.364Z,56.53
2023-04-18T23:41:02.020Z,56.74
2023-04-18T23:44:03.719Z,56.66
2023-04-18T23:47:05.938Z,56.94
2023-04-18T23:50:08.315Z,57.03
2023-04-18T23:53:09.966Z,57.23
2023-04-18T23:56:11.610Z,57.27
2023-04-18T23:59:13.254Z,57.93
